Terminal Aerodrome Forecast
Issued by NWS

Home | Current Version | Previous Version | Text Only | Print | Product List | Glossary On
Versions: 1 2 3 4 5 6 7 8 9 10 11 12 13 14 15 16 17 18 19 20 21 22 23 24 25 26 27 28
000
FTAK31 PAFA 231722
TAFAOT
TAF
PAOT 231722Z 2318/2418 18011KT P6SM -RA FEW027 OVC050
     FM232200 19016G25KT P6SM -RA OVC015
     FM240500 20014KT P6SM OVC015=

USA.gov is the U.S. government's official web portal to all federal, state and local government web resources and services.